Spencer, IA

6:55 PM CDT on September 04, 2015 (GMT -0500)
Milford Fire Station | | Change Station
CLOSE
Current Station
Personal Weather Station
Location: Milford, IA
Elevation: 1443 ft
Nearby Weather Stations

Elev 1443 ft 43.33 °N, 95.15 °W | Updated 31 seconds ago

Overcast
Overcast
79.3 °F
Feels Like 83 °F
N
4.0
Wind Variable Wind from SE
Gusts 9.0 mph

Today
High -- | Low -- °F
--% Chance of Precip.
Yesterday
High -- | Low -- °F
Precip. -- in
6:47 AM 7:50 PM
Waning Gibbous, 55% visible
Pressure 29.91 in
Visibility 0.8 miles
Clouds Clear
Heat Index 83 °F
Dew Point 74 °F
Humidity 84%
Rainfall in
Snow Depth Not available.
UV 1 out of 12
Pollen 9.50 out of 12
Air Quality Not available.
Flu Activity Not available.
SPECI KSPW 042343Z AUTO 14010KT 3/4SM HZ CLR 27/22 A2991 RMK AO2 T02720222 $
Pressure 29.91 in
Visibility 0.8 miles
Clouds Clear
Heat Index 83 °F
Dew Point 74 °F
Humidity 84%
Rainfall in
Snow Depth Not available.
UV 1 out of 12
Pollen 9.50 out of 12
Air Quality Not available.
Flu Activity Not available.
SPECI KSPW 042343Z AUTO 14010KT 3/4SM HZ CLR 27/22 A2991 RMK AO2 T02720222 $

10-Day Weather Forecast

×

Almanac

Astronomy

Sep. 04, 2015 Rise Set
Actual Time
Civil Twilight
Nautical Twilight
Astronomical Twilight
Moon
Length of Visible Light
Length of Day
Tomorrow will be .
, % of the Moon is Illuminated

Today's Extremes

State Highs State Lows

Community

WunderPhotos

Upload Photos

1,852,338 photos uploaded!

WunderBlogs® & News

Nearby

Air Quality

  Air Quality AQ Index Pollutant
Not available.

Snow Depth

Station Depth Elevation

Earthquake Activity

City Distance Mag. Time & Date
Minimum magnitude displayed is 2.5.

Coastal Water Temperatures

Place Temperature

Stations

Nearby Weather Stations

Station Location Temp. Windchill Dew Point Humidity Wind Precip. Elev Updated Type